createdAt,value
2017-12-31T00:01:46.951Z,6.10
2017-12-31T00:04:14.955Z,4.78
2017-12-31T00:06:42.442Z,3.78
2017-12-31T00:09:09.879Z,2.25
2017-12-31T00:11:38.108Z,2.40
2017-12-31T00:14:05.551Z,2.90
2017-12-31T00:16:33.011Z,2.53
2017-12-31T00:19:00.507Z,2.35
2017-12-31T00:21:27.996Z,4.78
2017-12-31T00:23:56.200Z,5.22
2017-12-31T00:26:23.666Z,1.67
2017-12-31T00:28:51.123Z,3.97
2017-12-31T00:31:18.569Z,4.43
2017-12-31T00:33:46.028Z,3.70
2017-12-31T00:36:13.595Z,3.97
2017-12-31T00:38:41.066Z,2.70
2017-12-31T00:41:08.523Z,4.70
2017-12-31T00:43:36.004Z,3.28
2017-12-31T00:46:03.428Z,4.10
2017-12-31T00:48:30.972Z,4.28
2017-12-31T00:50:58.444Z,3.10
2017-12-31T00:53:25.919Z,6.93
2017-12-31T00:55:54.147Z,2.80
2017-12-31T00:58:21.618Z,2.15
2017-12-31T01:00:49.203Z,7.45
2017-12-31T01:03:16.636Z,2.53
2017-12-31T01:05:44.107Z,2.17
2017-12-31T01:08:11.588Z,5.40
2017-12-31T01:10:39.055Z,3.65
2017-12-31T01:13:06.499Z,2.10
2017-12-31T01:15:34.758Z,1.75
2017-12-31T01:18:02.204Z,1.58
2017-12-31T01:20:29.662Z,6.15
2017-12-31T01:22:57.107Z,1.30
2017-12-31T01:25:24.598Z,2.00
2017-12-31T01:27:52.807Z,1.40
2017-12-31T01:30:20.264Z,1.30
2017-12-31T01:32:47.709Z,2.95
2017-12-31T01:35:16.648Z,2.12
2017-12-31T01:37:44.104Z,1.58
2017-12-31T01:40:11.558Z,3.50
2017-12-31T01:42:39.006Z,1.15
2017-12-31T01:45:06.444Z,2.28
2017-12-31T01:47:33.955Z,1.65
2017-12-31T01:50:01.461Z,1.80
2017-12-31T01:52:28.923Z,1.65
2017-12-31T01:54:56.392Z,2.25
2017-12-31T01:57:24.602Z,1.10
2017-12-31T01:59:52.822Z,2.37
2017-12-31T02:02:20.273Z,0.80
2017-12-31T02:04:47.721Z,1.55
2017-12-31T02:07:15.323Z,2.83
2017-12-31T02:09:42.762Z,1.87
2017-12-31T02:12:10.220Z,6.85
2017-12-31T02:14:37.668Z,1.67
2017-12-31T02:17:05.115Z,0.80
2017-12-31T02:19:32.574Z,3.10
2017-12-31T02:22:00.027Z,1.40
2017-12-31T02:24:27.491Z,2.75
2017-12-31T02:26:54.947Z,1.80
2017-12-31T02:29:23.175Z,1.50
2017-12-31T02:31:50.627Z,1.23
2017-12-31T02:34:18.128Z,1.37
2017-12-31T02:36:45.579Z,4.53
2017-12-31T02:39:13.017Z,3.33
2017-12-31T02:41:40.477Z,3.80
2017-12-31T02:44:07.918Z,5.25
2017-12-31T02:46:35.488Z,2.50
2017-12-31T02:49:02.940Z,3.30
2017-12-31T02:51:30.403Z,4.65
2017-12-31T02:53:57.853Z,5.28
2017-12-31T02:56:25.319Z,6.72
2017-12-31T02:58:52.797Z,14.73
2017-12-31T03:01:20.266Z,15.13
2017-12-31T03:03:47.704Z,8.48
2017-12-31T03:06:15.155Z,7.05
2017-12-31T03:08:42.622Z,12.85
2017-12-31T03:11:10.113Z,10.10
2017-12-31T03:13:37.586Z,12.88
2017-12-31T03:16:05.044Z,9.43
2017-12-31T03:18:33.268Z,10.45
2017-12-31T03:21:00.715Z,16.40
2017-12-31T03:23:28.886Z,20.45
2017-12-31T03:25:56.831Z,12.82
2017-12-31T03:28:24.286Z,8.77
2017-12-31T03:30:51.743Z,10.57
2017-12-31T03:33:19.222Z,14.30
2017-12-31T03:35:46.821Z,9.20
2017-12-31T03:38:14.296Z,7.68
2017-12-31T03:40:42.500Z,9.48
2017-12-31T03:43:09.983Z,8.02
2017-12-31T03:45:38.303Z,5.32
2017-12-31T03:48:06.494Z,4.10
2017-12-31T03:50:33.942Z,10.27
2017-12-31T03:53:01.405Z,8.02
2017-12-31T03:55:28.902Z,9.70
2017-12-31T03:57:56.339Z,6.28
2017-12-31T04:00:23.805Z,6.20
2017-12-31T04:02:51.344Z,5.70
2017-12-31T04:05:18.891Z,2.42
2017-12-31T04:07:46.330Z,3.65
2017-12-31T04:10:13.799Z,3.12
2017-12-31T04:12:41.238Z,2.15
2017-12-31T04:15:08.717Z,6.45
2017-12-31T04:17:36.156Z,4.78
2017-12-31T04:20:03.626Z,5.20
2017-12-31T04:22:31.107Z,4.80
2017-12-31T04:24:58.592Z,1.62
2017-12-31T04:27:26.838Z,2.90
2017-12-31T04:29:54.284Z,7.75
2017-12-31T04:32:21.754Z,1.98
2017-12-31T04:34:49.223Z,4.18
2017-12-31T04:37:16.666Z,10.48
2017-12-31T04:39:44.163Z,2.53
2017-12-31T04:42:11.631Z,6.10
2017-12-31T04:44:39.154Z,3.45
2017-12-31T04:47:06.590Z,6.10
2017-12-31T04:49:34.064Z,5.50
2017-12-31T04:52:01.497Z,3.47
2017-12-31T04:54:28.984Z,8.02
2017-12-31T04:56:56.438Z,12.45
2017-12-31T04:59:23.899Z,5.30
2017-12-31T05:01:51.376Z,7.80
2017-12-31T05:04:18.819Z,3.97
2017-12-31T05:06:47.030Z,8.25
2017-12-31T05:09:14.514Z,10.20
2017-12-31T05:11:41.979Z,6.65
2017-12-31T05:14:09.432Z,17.12
2017-12-31T05:16:36.910Z,8.48
2017-12-31T05:19:04.354Z,9.13
2017-12-31T05:21:31.813Z,5.57
2017-12-31T05:23:59.407Z,8.48
2017-12-31T05:26:26.863Z,7.25
2017-12-31T05:28:54.311Z,10.82
2017-12-31T05:31:21.812Z,12.90
2017-12-31T05:33:49.362Z,7.68
2017-12-31T05:36:16.807Z,9.82
2017-12-31T05:38:44.243Z,9.57
2017-12-31T05:41:11.719Z,9.80
2017-12-31T05:43:39.215Z,7.40
2017-12-31T05:46:06.848Z,10.07
2017-12-31T05:48:34.322Z,6.72
2017-12-31T05:51:01.767Z,8.82
2017-12-31T05:53:29.260Z,12.95
2017-12-31T05:55:58.319Z,6.10
2017-12-31T05:58:25.791Z,9.38
2017-12-31T06:00:53.359Z,8.30
2017-12-31T06:03:20.869Z,4.87
2017-12-31T06:05:48.339Z,14.95
2017-12-31T06:08:15.810Z,15.30
2017-12-31T06:10:44.032Z,9.02
2017-12-31T06:13:12.346Z,8.30
2017-12-31T06:15:39.766Z,12.18
2017-12-31T06:18:07.243Z,7.90
2017-12-31T06:20:34.705Z,6.75
2017-12-31T06:23:02.172Z,13.00
2017-12-31T06:25:29.630Z,8.35
2017-12-31T06:27:57.219Z,8.30
2017-12-31T06:30:24.680Z,7.57
2017-12-31T06:32:52.120Z,5.20
2017-12-31T06:35:19.621Z,6.03
2017-12-31T06:37:47.050Z,7.03
2017-12-31T06:40:15.285Z,6.05
2017-12-31T06:42:42.752Z,9.20
2017-12-31T06:45:10.214Z,4.05
2017-12-31T06:47:37.660Z,5.55
2017-12-31T06:50:05.127Z,6.62
2017-12-31T06:52:32.584Z,4.57
2017-12-31T06:55:00.040Z,5.43
2017-12-31T06:57:27.507Z,4.97
2017-12-31T06:59:54.951Z,8.52
2017-12-31T07:02:22.485Z,5.05
2017-12-31T07:04:49.905Z,8.40
2017-12-31T07:07:17.492Z,6.00
2017-12-31T07:09:44.958Z,5.35
2017-12-31T07:12:12.408Z,7.37
2017-12-31T07:14:39.914Z,4.97
2017-12-31T07:17:07.355Z,4.22
2017-12-31T07:19:34.863Z,6.28
2017-12-31T07:22:02.320Z,4.72
2017-12-31T07:24:29.816Z,10.63
2017-12-31T07:26:58.020Z,6.45
2017-12-31T07:29:26.242Z,7.05
2017-12-31T07:31:53.724Z,4.00
2017-12-31T07:34:21.191Z,3.05
2017-12-31T07:36:48.684Z,6.12
2017-12-31T07:39:17.394Z,8.32
2017-12-31T07:41:44.845Z,8.82
2017-12-31T07:44:12.309Z,3.05
2017-12-31T07:46:39.775Z,3.83
2017-12-31T07:49:07.244Z,9.50
2017-12-31T07:51:34.734Z,6.50
2017-12-31T07:54:02.943Z,9.50
2017-12-31T07:56:30.431Z,4.72
2017-12-31T07:58:57.870Z,6.25
2017-12-31T08:01:26.103Z,5.30
2017-12-31T08:06:27.412Z,4.28
2017-12-31T08:08:55.912Z,5.70
2017-12-31T08:11:23.383Z,3.28
2017-12-31T08:13:51.609Z,4.75
2017-12-31T08:16:19.478Z,3.60
2017-12-31T08:18:47.363Z,5.25
2017-12-31T08:21:14.832Z,5.10
2017-12-31T08:23:42.278Z,8.00
2017-12-31T08:26:09.752Z,5.22
2017-12-31T08:28:37.240Z,8.52
2017-12-31T08:31:04.696Z,5.85
2017-12-31T08:33:32.161Z,7.53
2017-12-31T08:35:59.672Z,5.50
2017-12-31T08:38:27.132Z,6.20
2017-12-31T08:40:54.579Z,7.00
2017-12-31T08:43:22.063Z,9.73
2017-12-31T08:45:50.283Z,6.07
2017-12-31T08:48:17.841Z,6.78
2017-12-31T08:50:45.312Z,4.62
2017-12-31T08:53:12.768Z,3.20
2017-12-31T08:55:40.241Z,6.97
2017-12-31T08:58:07.718Z,5.10
2017-12-31T09:00:36.041Z,6.20
2017-12-31T09:03:03.599Z,6.00
2017-12-31T09:05:31.080Z,6.37
2017-12-31T09:07:58.519Z,5.20
2017-12-31T09:10:26.015Z,9.60
2017-12-31T09:12:54.314Z,7.50
2017-12-31T09:15:21.783Z,4.78
2017-12-31T09:17:49.222Z,4.82
2017-12-31T09:20:16.691Z,5.12
2017-12-31T09:22:44.176Z,4.80
2017-12-31T09:25:11.630Z,5.20
2017-12-31T09:27:39.147Z,4.15
2017-12-31T09:30:06.587Z,4.03
2017-12-31T09:32:34.828Z,2.60
2017-12-31T09:35:03.051Z,9.07
2017-12-31T09:37:31.322Z,7.35
2017-12-31T09:39:58.766Z,6.22
2017-12-31T09:42:27.005Z,7.60
2017-12-31T09:44:54.459Z,6.20
2017-12-31T09:47:21.935Z,7.30
2017-12-31T09:49:49.597Z,4.63
2017-12-31T09:52:17.031Z,9.13
2017-12-31T09:54:44.512Z,1.93
2017-12-31T09:57:12.008Z,7.67
2017-12-31T09:59:40.194Z,4.60
2017-12-31T10:02:11.445Z,7.73
2017-12-31T10:04:39.012Z,8.20
2017-12-31T10:07:06.453Z,5.53
2017-12-31T10:09:33.910Z,5.20
2017-12-31T10:12:01.363Z,8.03
2017-12-31T10:14:28.841Z,7.00
2017-12-31T10:16:56.320Z,6.13
2017-12-31T10:19:23.786Z,5.83
2017-12-31T10:21:51.242Z,8.90
2017-12-31T10:24:18.712Z,6.68
2017-12-31T10:26:46.931Z,5.30
2017-12-31T10:29:14.401Z,3.87
2017-12-31T10:31:41.889Z,8.93
2017-12-31T10:34:09.365Z,10.00
2017-12-31T10:36:36.856Z,6.22
2017-12-31T10:39:04.361Z,4.22
2017-12-31T10:41:31.855Z,4.17
2017-12-31T10:43:59.334Z,7.12
2017-12-31T10:46:26.816Z,7.62
2017-12-31T10:48:54.268Z,4.37
2017-12-31T10:51:22.602Z,3.58
2017-12-31T10:53:50.080Z,6.18
2017-12-31T10:56:17.566Z,4.20
2017-12-31T10:58:46.425Z,5.85
2017-12-31T11:01:13.888Z,5.45
2017-12-31T11:03:41.343Z,6.97
2017-12-31T11:06:08.815Z,4.25
2017-12-31T11:08:36.291Z,9.10
2017-12-31T11:11:03.833Z,6.30
2017-12-31T11:13:31.352Z,5.50
2017-12-31T11:15:58.831Z,6.43
2017-12-31T11:18:26.306Z,5.47
2017-12-31T11:20:53.790Z,7.10
2017-12-31T11:23:21.232Z,7.65
2017-12-31T11:25:49.434Z,5.17
2017-12-31T11:28:16.955Z,4.80
2017-12-31T11:30:44.418Z,3.30
2017-12-31T11:33:11.918Z,9.55
2017-12-31T11:35:39.457Z,2.62
2017-12-31T11:38:07.646Z,5.20
2017-12-31T11:40:35.248Z,5.05
2017-12-31T11:43:02.791Z,5.28
2017-12-31T11:45:30.247Z,3.28
2017-12-31T11:47:57.694Z,6.47
2017-12-31T11:50:25.163Z,8.57
2017-12-31T11:52:52.651Z,5.20
2017-12-31T11:55:20.128Z,6.75
2017-12-31T11:57:48.325Z,5.72
2017-12-31T12:00:15.814Z,7.00
2017-12-31T12:02:43.262Z,7.85
2017-12-31T12:05:10.721Z,6.10
2017-12-31T12:07:45.014Z,5.05
2017-12-31T12:10:12.646Z,4.65
2017-12-31T12:12:40.124Z,6.78
2017-12-31T12:15:07.582Z,4.75
2017-12-31T12:17:35.071Z,13.70
2017-12-31T12:20:02.548Z,7.65
2017-12-31T12:22:30.763Z,9.80
2017-12-31T12:24:58.236Z,9.32
2017-12-31T12:27:25.709Z,6.15
2017-12-31T12:29:53.146Z,5.60
2017-12-31T12:32:20.699Z,3.78
2017-12-31T12:34:48.133Z,3.80
2017-12-31T12:37:15.718Z,10.05
2017-12-31T12:39:43.168Z,4.07
2017-12-31T12:42:10.657Z,6.35
2017-12-31T12:44:38.197Z,5.93
2017-12-31T12:47:05.651Z,2.40
2017-12-31T12:49:33.169Z,3.70
2017-12-31T12:52:00.648Z,3.95
2017-12-31T12:54:28.113Z,3.97
2017-12-31T12:56:55.571Z,3.97
2017-12-31T12:59:23.064Z,4.82
2017-12-31T13:01:50.547Z,5.43
2017-12-31T13:04:18.019Z,6.07
2017-12-31T13:06:45.486Z,5.95
2017-12-31T13:09:12.951Z,3.87
2017-12-31T13:11:40.468Z,5.03
2017-12-31T13:14:07.930Z,4.10
2017-12-31T13:16:35.438Z,4.20
2017-12-31T13:19:02.971Z,3.03
2017-12-31T13:21:30.435Z,4.35
2017-12-31T13:23:59.351Z,3.60
2017-12-31T13:26:26.834Z,4.82
2017-12-31T13:28:55.050Z,4.37
2017-12-31T13:31:23.001Z,3.73
2017-12-31T13:33:50.496Z,3.22
2017-12-31T13:36:17.972Z,4.62
2017-12-31T13:38:46.255Z,5.18
2017-12-31T13:41:14.479Z,3.80
2017-12-31T13:43:41.955Z,3.43
2017-12-31T13:46:09.450Z,3.25
2017-12-31T13:48:37.742Z,3.85
2017-12-31T13:51:05.247Z,3.65
2017-12-31T13:53:33.506Z,2.35
2017-12-31T13:56:01.079Z,4.62
2017-12-31T13:58:28.512Z,6.05
2017-12-31T14:00:55.967Z,3.45
2017-12-31T14:03:23.426Z,3.08
2017-12-31T14:05:50.913Z,3.30
2017-12-31T14:08:18.350Z,3.50
2017-12-31T14:10:45.871Z,2.97
2017-12-31T14:13:13.375Z,1.73
2017-12-31T14:15:40.818Z,6.10
2017-12-31T14:18:08.300Z,9.67
2017-12-31T14:20:35.743Z,3.73
2017-12-31T14:23:03.207Z,5.00
2017-12-31T14:25:30.655Z,4.07
2017-12-31T14:27:58.147Z,4.13
2017-12-31T14:30:26.382Z,5.43
2017-12-31T14:32:53.856Z,4.63
2017-12-31T14:35:21.320Z,5.17
2017-12-31T14:37:49.569Z,1.85
2017-12-31T14:40:17.039Z,4.70
2017-12-31T14:42:44.563Z,4.62
2017-12-31T14:45:12.041Z,3.85
2017-12-31T14:47:39.486Z,1.70
2017-12-31T14:50:06.960Z,4.93
2017-12-31T14:52:34.414Z,3.83
2017-12-31T14:55:01.889Z,2.97
2017-12-31T14:57:30.116Z,2.90
2017-12-31T14:59:57.588Z,4.43
2017-12-31T15:02:25.051Z,4.00
2017-12-31T15:04:52.518Z,2.08
2017-12-31T15:07:19.966Z,2.28
2017-12-31T15:09:47.519Z,3.97
2017-12-31T15:12:14.974Z,4.53
2017-12-31T15:14:42.429Z,3.03
2017-12-31T15:17:09.894Z,2.45
2017-12-31T15:19:37.462Z,4.53
2017-12-31T15:22:04.961Z,2.58
2017-12-31T15:24:33.181Z,2.05
2017-12-31T15:27:00.648Z,2.37
2017-12-31T15:29:28.108Z,2.00
2017-12-31T15:31:55.546Z,2.30
2017-12-31T15:34:23.019Z,2.62
2017-12-31T15:36:50.483Z,1.77
2017-12-31T15:39:18.730Z,1.75
2017-12-31T15:41:46.179Z,3.67
2017-12-31T15:44:13.656Z,2.05
2017-12-31T15:46:41.102Z,5.67
2017-12-31T15:49:08.565Z,1.52
2017-12-31T15:51:36.030Z,7.10
2017-12-31T15:54:03.560Z,3.25
2017-12-31T15:56:31.031Z,3.83
2017-12-31T15:58:58.498Z,4.00
2017-12-31T16:01:26.008Z,7.22
2017-12-31T16:03:53.472Z,3.47
2017-12-31T16:06:21.663Z,4.93
2017-12-31T16:08:49.128Z,2.25
2017-12-31T16:11:17.194Z,3.62
2017-12-31T16:13:44.656Z,2.33
2017-12-31T16:16:12.114Z,3.37
2017-12-31T16:18:39.583Z,2.37
2017-12-31T16:21:07.054Z,1.53
2017-12-31T16:23:35.315Z,1.40
2017-12-31T16:26:02.800Z,2.77
2017-12-31T16:28:31.061Z,1.90
2017-12-31T16:30:59.287Z,3.10
2017-12-31T16:33:26.742Z,3.42
2017-12-31T16:35:54.236Z,5.27
2017-12-31T16:38:21.731Z,2.20
2017-12-31T16:40:49.179Z,3.23
2017-12-31T16:43:16.640Z,2.60
2017-12-31T16:45:44.114Z,4.07
2017-12-31T16:48:11.568Z,2.00
2017-12-31T16:50:39.007Z,5.17
2017-12-31T16:53:07.046Z,2.20
2017-12-31T16:55:35.275Z,2.00
2017-12-31T16:58:02.747Z,4.25
2017-12-31T17:00:30.243Z,4.25
2017-12-31T17:02:58.502Z,3.43
2017-12-31T17:05:25.971Z,3.72
2017-12-31T17:07:54.182Z,3.27
2017-12-31T17:10:21.662Z,2.55
2017-12-31T17:12:49.115Z,5.85
2017-12-31T17:15:16.621Z,3.33
2017-12-31T17:17:44.825Z,6.28
2017-12-31T17:20:12.278Z,2.60
2017-12-31T17:22:39.745Z,3.90
2017-12-31T17:25:07.236Z,2.67
2017-12-31T17:27:34.697Z,4.03
2017-12-31T17:30:02.152Z,2.67
2017-12-31T17:32:29.638Z,5.62
2017-12-31T17:34:57.889Z,2.80
2017-12-31T17:37:26.135Z,2.45
2017-12-31T17:39:53.591Z,3.67
2017-12-31T17:42:21.072Z,5.07
2017-12-31T17:44:48.527Z,2.67
2017-12-31T17:47:15.985Z,7.00
2017-12-31T17:49:43.453Z,3.13
2017-12-31T17:52:11.713Z,4.20
2017-12-31T17:54:39.176Z,2.87
2017-12-31T17:57:06.614Z,4.10
2017-12-31T17:59:34.076Z,3.20
2017-12-31T18:02:01.555Z,6.65
2017-12-31T18:04:29.799Z,2.97
2017-12-31T18:06:57.304Z,4.55
2017-12-31T18:09:24.774Z,2.50
2017-12-31T18:11:52.235Z,2.03
2017-12-31T18:14:19.726Z,3.40
2017-12-31T18:16:47.350Z,2.47
2017-12-31T18:19:14.921Z,3.28
2017-12-31T18:21:42.338Z,2.37
2017-12-31T18:24:10.567Z,3.60
2017-12-31T18:26:38.019Z,3.40
2017-12-31T18:29:05.491Z,5.78
2017-12-31T18:31:32.939Z,4.20
2017-12-31T18:34:00.438Z,5.50
2017-12-31T18:36:27.931Z,4.47
2017-12-31T18:38:55.404Z,3.28
2017-12-31T18:41:23.604Z,5.20
2017-12-31T18:43:52.435Z,4.45
2017-12-31T18:46:19.913Z,3.37
2017-12-31T18:48:47.375Z,4.03
2017-12-31T18:51:14.864Z,5.40
2017-12-31T18:53:42.311Z,2.60
2017-12-31T18:56:09.884Z,4.80
2017-12-31T18:58:37.322Z,2.92
2017-12-31T19:01:04.774Z,4.47
2017-12-31T19:03:32.253Z,4.85
2017-12-31T19:06:00.491Z,5.85
2017-12-31T19:08:28.033Z,3.20
2017-12-31T19:10:55.475Z,4.50
2017-12-31T19:13:23.075Z,3.58
2017-12-31T19:15:50.525Z,3.22
2017-12-31T19:18:17.991Z,5.62
2017-12-31T19:20:45.451Z,3.42
2017-12-31T19:23:12.919Z,2.53
2017-12-31T19:25:41.134Z,4.57
2017-12-31T19:28:08.621Z,2.55
2017-12-31T19:30:36.064Z,3.87
2017-12-31T19:33:03.555Z,3.87
2017-12-31T19:35:31.006Z,5.40
2017-12-31T19:37:58.512Z,6.62
2017-12-31T19:40:26.057Z,5.32
2017-12-31T19:42:53.566Z,4.18
2017-12-31T19:45:21.782Z,5.25
2017-12-31T19:47:49.226Z,4.62
2017-12-31T19:50:17.458Z,5.90
2017-12-31T19:52:44.906Z,4.60
2017-12-31T19:55:12.371Z,5.12
2017-12-31T19:57:40.635Z,7.00
2017-12-31T20:00:08.087Z,4.75
2017-12-31T20:02:35.571Z,6.82
2017-12-31T20:05:03.067Z,7.53
2017-12-31T20:07:31.320Z,6.15
2017-12-31T20:09:58.767Z,5.57
2017-12-31T20:12:26.282Z,7.30
2017-12-31T20:14:54.570Z,7.43
2017-12-31T20:17:22.051Z,4.05
2017-12-31T20:19:49.508Z,10.35
2017-12-31T20:22:16.972Z,11.55
2017-12-31T20:24:44.495Z,6.22
2017-12-31T20:27:11.959Z,10.50
2017-12-31T20:29:39.422Z,5.15
2017-12-31T20:32:06.893Z,5.50
2017-12-31T20:34:34.372Z,5.18
2017-12-31T20:37:02.615Z,5.85
2017-12-31T20:39:30.075Z,4.15
2017-12-31T20:41:57.520Z,6.68
2017-12-31T20:44:25.048Z,4.70
2017-12-31T20:46:52.518Z,3.78
2017-12-31T20:49:19.962Z,5.03
2017-12-31T20:51:47.428Z,8.40
2017-12-31T20:54:14.896Z,5.00
2017-12-31T20:56:43.165Z,5.12
2017-12-31T20:59:10.611Z,4.53
2017-12-31T21:01:38.077Z,5.43
2017-12-31T21:04:05.529Z,7.07
2017-12-31T21:06:32.999Z,6.12
2017-12-31T21:09:00.454Z,4.05
2017-12-31T21:11:27.920Z,4.70
2017-12-31T21:13:55.358Z,5.82
2017-12-31T21:16:22.820Z,6.85
2017-12-31T21:18:51.039Z,8.27
2017-12-31T21:21:19.282Z,5.50
2017-12-31T21:23:46.732Z,5.72
2017-12-31T21:26:14.173Z,5.18
2017-12-31T21:28:41.795Z,7.10
2017-12-31T21:31:10.024Z,6.70
2017-12-31T21:33:37.503Z,4.53
2017-12-31T21:36:04.959Z,7.62
2017-12-31T21:38:32.408Z,5.50
2017-12-31T21:40:59.848Z,5.18
2017-12-31T21:43:27.334Z,4.65
2017-12-31T21:45:55.563Z,3.70
2017-12-31T21:48:23.042Z,4.68
2017-12-31T21:50:50.510Z,4.93
2017-12-31T21:53:17.961Z,6.40
2017-12-31T21:55:45.442Z,5.20
2017-12-31T21:58:13.697Z,4.30
2017-12-31T22:00:41.208Z,5.70
2017-12-31T22:03:08.703Z,5.65
2017-12-31T22:05:36.234Z,6.35
2017-12-31T22:08:03.663Z,4.55
2017-12-31T22:10:31.211Z,3.90
2017-12-31T22:12:58.668Z,4.78
2017-12-31T22:15:26.911Z,3.85
2017-12-31T22:17:54.359Z,3.80
2017-12-31T22:20:22.696Z,4.80
2017-12-31T22:22:50.167Z,4.70
2017-12-31T22:25:17.776Z,6.90
2017-12-31T22:27:46.001Z,4.03
2017-12-31T22:30:13.478Z,5.85
2017-12-31T22:32:40.948Z,4.28
2017-12-31T22:35:08.383Z,7.93
2017-12-31T22:37:37.140Z,3.35
2017-12-31T22:40:04.575Z,5.07
2017-12-31T22:42:32.049Z,4.90
2017-12-31T22:44:59.509Z,5.90
2017-12-31T22:47:26.982Z,4.78
2017-12-31T22:49:54.462Z,8.30
2017-12-31T22:52:21.948Z,5.55
2017-12-31T22:54:49.394Z,4.80
2017-12-31T22:57:17.645Z,5.68
2017-12-31T22:59:45.104Z,6.45
2017-12-31T23:02:12.556Z,25.35
2017-12-31T23:04:40.030Z,32.88
2017-12-31T23:07:07.511Z,37.03
2017-12-31T23:09:35.001Z,65.95
2017-12-31T23:12:02.506Z,133.70
2017-12-31T23:14:30.722Z,81.30
2017-12-31T23:16:58.252Z,68.37
2017-12-31T23:19:26.479Z,39.45
2017-12-31T23:21:53.932Z,40.55
2017-12-31T23:24:21.442Z,49.75
2017-12-31T23:26:49.716Z,41.17
2017-12-31T23:29:17.944Z,29.48
2017-12-31T23:31:46.040Z,53.53
2017-12-31T23:34:13.508Z,31.90
2017-12-31T23:36:40.988Z,62.90
2017-12-31T23:39:08.434Z,25.90
2017-12-31T23:41:35.939Z,31.10
2017-12-31T23:44:03.422Z,32.58
2017-12-31T23:46:30.875Z,20.05
2017-12-31T23:48:58.345Z,11.82
2017-12-31T23:51:26.563Z,11.27
2017-12-31T23:53:54.049Z,11.63
2017-12-31T23:56:21.510Z,14.45
2017-12-31T23:58:49.084Z,9.13
